sensor_id;sensor_type;location;lat;lon;timestamp;P1;durP1;ratioP1;P2;durP2;ratioP2
10711;SDS011;5407;51.234;6.804;2023-09-19T00:00:55;10.67;;;2.90;;
10711;SDS011;5407;51.234;6.804;2023-09-19T00:03:23;8.90;;;2.87;;
10711;SDS011;5407;51.234;6.804;2023-09-19T00:05:52;8.30;;;3.10;;
10711;SDS011;5407;51.234;6.804;2023-09-19T00:08:20;7.03;;;2.87;;
10711;SDS011;5407;51.234;6.804;2023-09-19T00:10:50;9.50;;;3.13;;
10711;SDS011;5407;51.234;6.804;2023-09-19T00:13:18;10.00;;;2.50;;
10711;SDS011;5407;51.234;6.804;2023-09-19T00:15:46;9.90;;;2.80;;
10711;SDS011;5407;51.234;6.804;2023-09-19T00:18:15;10.13;;;2.60;;
10711;SDS011;5407;51.234;6.804;2023-09-19T00:20:44;9.73;;;3.13;;
10711;SDS011;5407;51.234;6.804;2023-09-19T00:23:14;10.50;;;2.93;;
10711;SDS011;5407;51.234;6.804;2023-09-19T00:25:41;10.93;;;2.90;;
10711;SDS011;5407;51.234;6.804;2023-09-19T00:28:08;11.43;;;3.00;;
10711;SDS011;5407;51.234;6.804;2023-09-19T00:30:35;8.73;;;2.63;;
10711;SDS011;5407;51.234;6.804;2023-09-19T00:33:04;14.30;;;3.10;;
10711;SDS011;5407;51.234;6.804;2023-09-19T00:35:33;10.33;;;2.80;;
10711;SDS011;5407;51.234;6.804;2023-09-19T00:38:02;10.67;;;2.80;;
10711;SDS011;5407;51.234;6.804;2023-09-19T00:40:31;11.57;;;2.80;;
10711;SDS011;5407;51.234;6.804;2023-09-19T00:42:58;10.40;;;2.90;;
10711;SDS011;5407;51.234;6.804;2023-09-19T00:45:26;10.07;;;3.40;;
10711;SDS011;5407;51.234;6.804;2023-09-19T00:47:54;11.27;;;3.30;;
10711;SDS011;5407;51.234;6.804;2023-09-19T00:50:22;12.33;;;2.87;;
10711;SDS011;5407;51.234;6.804;2023-09-19T00:52:54;10.17;;;3.03;;
10711;SDS011;5407;51.234;6.804;2023-09-19T00:55:22;10.33;;;2.67;;
10711;SDS011;5407;51.234;6.804;2023-09-19T00:57:52;8.37;;;2.80;;
10711;SDS011;5407;51.234;6.804;2023-09-19T01:00:22;9.80;;;2.80;;
10711;SDS011;5407;51.234;6.804;2023-09-19T01:02:49;13.40;;;3.30;;
10711;SDS011;5407;51.234;6.804;2023-09-19T01:05:17;8.70;;;2.70;;
10711;SDS011;5407;51.234;6.804;2023-09-19T01:07:44;13.13;;;3.00;;
10711;SDS011;5407;51.234;6.804;2023-09-19T01:10:14;10.73;;;3.07;;
10711;SDS011;5407;51.234;6.804;2023-09-19T01:12:47;10.80;;;3.27;;
10711;SDS011;5407;51.234;6.804;2023-09-19T01:15:32;10.13;;;2.73;;
10711;SDS011;5407;51.234;6.804;2023-09-19T01:18:21;10.37;;;2.83;;
10711;SDS011;5407;51.234;6.804;2023-09-19T01:20:57;7.63;;;2.50;;
10711;SDS011;5407;51.234;6.804;2023-09-19T01:23:36;11.27;;;2.87;;
10711;SDS011;5407;51.234;6.804;2023-09-19T01:26:18;7.60;;;2.80;;
10711;SDS011;5407;51.234;6.804;2023-09-19T01:29:16;13.87;;;3.00;;
10711;SDS011;5407;51.234;6.804;2023-09-19T01:31:58;11.77;;;3.13;;
10711;SDS011;5407;51.234;6.804;2023-09-19T01:34:29;13.70;;;2.80;;
10711;SDS011;5407;51.234;6.804;2023-09-19T01:37:12;13.23;;;3.40;;
10711;SDS011;5407;51.234;6.804;2023-09-19T01:39:39;10.03;;;3.17;;
10711;SDS011;5407;51.234;6.804;2023-09-19T01:42:08;10.77;;;3.10;;
10711;SDS011;5407;51.234;6.804;2023-09-19T01:47:37;14.57;;;2.80;;
10711;SDS011;5407;51.234;6.804;2023-09-19T01:50:17;9.73;;;3.00;;
10711;SDS011;5407;51.234;6.804;2023-09-19T01:52:54;12.50;;;3.00;;
10711;SDS011;5407;51.234;6.804;2023-09-19T01:55:26;6.70;;;2.87;;
10711;SDS011;5407;51.234;6.804;2023-09-19T01:57:58;11.07;;;3.40;;
10711;SDS011;5407;51.234;6.804;2023-09-19T02:00:30;10.03;;;2.60;;
10711;SDS011;5407;51.234;6.804;2023-09-19T02:03:02;10.10;;;2.90;;
10711;SDS011;5407;51.234;6.804;2023-09-19T02:05:29;13.37;;;3.33;;
10711;SDS011;5407;51.234;6.804;2023-09-19T02:07:58;10.93;;;3.17;;
10711;SDS011;5407;51.234;6.804;2023-09-19T02:10:26;12.90;;;3.23;;
10711;SDS011;5407;51.234;6.804;2023-09-19T02:12:55;12.47;;;2.93;;
10711;SDS011;5407;51.234;6.804;2023-09-19T02:15:22;20.93;;;3.60;;
10711;SDS011;5407;51.234;6.804;2023-09-19T02:17:48;12.80;;;3.47;;
10711;SDS011;5407;51.234;6.804;2023-09-19T02:20:17;13.30;;;3.70;;
10711;SDS011;5407;51.234;6.804;2023-09-19T02:22:45;11.70;;;3.00;;
10711;SDS011;5407;51.234;6.804;2023-09-19T02:25:15;11.93;;;2.83;;
10711;SDS011;5407;51.234;6.804;2023-09-19T02:27:44;10.13;;;2.90;;
10711;SDS011;5407;51.234;6.804;2023-09-19T02:30:12;8.83;;;3.57;;
10711;SDS011;5407;51.234;6.804;2023-09-19T02:32:41;14.23;;;3.73;;
10711;SDS011;5407;51.234;6.804;2023-09-19T02:35:08;12.23;;;3.53;;
10711;SDS011;5407;51.234;6.804;2023-09-19T02:37:38;12.93;;;3.53;;
10711;SDS011;5407;51.234;6.804;2023-09-19T02:40:05;13.33;;;3.13;;
10711;SDS011;5407;51.234;6.804;2023-09-19T02:42:43;12.33;;;3.20;;
10711;SDS011;5407;51.234;6.804;2023-09-19T02:45:14;10.67;;;2.80;;
10711;SDS011;5407;51.234;6.804;2023-09-19T02:47:42;12.53;;;3.37;;
10711;SDS011;5407;51.234;6.804;2023-09-19T02:50:11;12.43;;;3.57;;
10711;SDS011;5407;51.234;6.804;2023-09-19T02:52:40;17.07;;;2.80;;
10711;SDS011;5407;51.234;6.804;2023-09-19T02:55:09;11.33;;;2.97;;
10711;SDS011;5407;51.234;6.804;2023-09-19T02:57:37;8.17;;;2.77;;
10711;SDS011;5407;51.234;6.804;2023-09-19T03:00:06;10.60;;;3.03;;
10711;SDS011;5407;51.234;6.804;2023-09-19T03:02:35;10.23;;;3.07;;
10711;SDS011;5407;51.234;6.804;2023-09-19T03:05:04;11.80;;;3.03;;
10711;SDS011;5407;51.234;6.804;2023-09-19T03:07:32;9.53;;;3.00;;
10711;SDS011;5407;51.234;6.804;2023-09-19T03:10:01;6.10;;;2.50;;
10711;SDS011;5407;51.234;6.804;2023-09-19T03:12:28;9.93;;;2.93;;
10711;SDS011;5407;51.234;6.804;2023-09-19T03:14:56;10.90;;;2.97;;
10711;SDS011;5407;51.234;6.804;2023-09-19T03:17:24;9.33;;;2.90;;
10711;SDS011;5407;51.234;6.804;2023-09-19T03:19:51;10.37;;;2.83;;
10711;SDS011;5407;51.234;6.804;2023-09-19T03:22:19;12.33;;;3.00;;
10711;SDS011;5407;51.234;6.804;2023-09-19T03:24:46;11.20;;;2.80;;
10711;SDS011;5407;51.234;6.804;2023-09-19T03:27:14;12.07;;;2.87;;
10711;SDS011;5407;51.234;6.804;2023-09-19T03:29:41;10.33;;;3.00;;
10711;SDS011;5407;51.234;6.804;2023-09-19T03:32:09;8.73;;;2.90;;
10711;SDS011;5407;51.234;6.804;2023-09-19T03:34:37;12.43;;;3.00;;
10711;SDS011;5407;51.234;6.804;2023-09-19T03:37:08;13.13;;;3.20;;
10711;SDS011;5407;51.234;6.804;2023-09-19T03:39:36;12.57;;;3.37;;
10711;SDS011;5407;51.234;6.804;2023-09-19T03:42:03;13.77;;;3.20;;
10711;SDS011;5407;51.234;6.804;2023-09-19T03:44:34;10.07;;;3.33;;
10711;SDS011;5407;51.234;6.804;2023-09-19T03:47:01;9.30;;;3.00;;
10711;SDS011;5407;51.234;6.804;2023-09-19T03:49:31;10.70;;;2.97;;
10711;SDS011;5407;51.234;6.804;2023-09-19T03:51:59;12.23;;;2.80;;
10711;SDS011;5407;51.234;6.804;2023-09-19T03:54:26;12.50;;;3.40;;
10711;SDS011;5407;51.234;6.804;2023-09-19T03:56:53;10.93;;;2.90;;
10711;SDS011;5407;51.234;6.804;2023-09-19T03:59:20;11.20;;;2.93;;
10711;SDS011;5407;51.234;6.804;2023-09-19T04:01:48;15.20;;;3.10;;
10711;SDS011;5407;51.234;6.804;2023-09-19T04:04:15;9.67;;;3.07;;
10711;SDS011;5407;51.234;6.804;2023-09-19T04:06:44;9.67;;;3.07;;
10711;SDS011;5407;51.234;6.804;2023-09-19T04:09:11;14.37;;;3.13;;
10711;SDS011;5407;51.234;6.804;2023-09-19T04:11:38;10.83;;;3.57;;
10711;SDS011;5407;51.234;6.804;2023-09-19T04:14:05;12.37;;;3.17;;
10711;SDS011;5407;51.234;6.804;2023-09-19T04:16:32;13.73;;;3.43;;
10711;SDS011;5407;51.234;6.804;2023-09-19T04:19:00;10.00;;;3.27;;
10711;SDS011;5407;51.234;6.804;2023-09-19T04:21:28;12.50;;;3.10;;
10711;SDS011;5407;51.234;6.804;2023-09-19T04:23:55;12.07;;;3.00;;
10711;SDS011;5407;51.234;6.804;2023-09-19T04:26:22;13.70;;;3.43;;
10711;SDS011;5407;51.234;6.804;2023-09-19T04:28:50;10.67;;;3.20;;
10711;SDS011;5407;51.234;6.804;2023-09-19T04:31:17;13.07;;;3.03;;
10711;SDS011;5407;51.234;6.804;2023-09-19T04:33:45;10.00;;;3.57;;
10711;SDS011;5407;51.234;6.804;2023-09-19T04:36:13;15.33;;;3.80;;
10711;SDS011;5407;51.234;6.804;2023-09-19T04:38:40;12.10;;;2.90;;
10711;SDS011;5407;51.234;6.804;2023-09-19T04:41:07;11.70;;;3.53;;
10711;SDS011;5407;51.234;6.804;2023-09-19T04:43:34;13.90;;;3.20;;
10711;SDS011;5407;51.234;6.804;2023-09-19T04:46:01;12.57;;;3.10;;
10711;SDS011;5407;51.234;6.804;2023-09-19T04:48:31;11.40;;;3.30;;
10711;SDS011;5407;51.234;6.804;2023-09-19T04:50:59;11.13;;;3.10;;
10711;SDS011;5407;51.234;6.804;2023-09-19T04:53:28;10.67;;;3.10;;
10711;SDS011;5407;51.234;6.804;2023-09-19T04:55:55;11.27;;;3.47;;
10711;SDS011;5407;51.234;6.804;2023-09-19T04:58:21;7.40;;;3.27;;
10711;SDS011;5407;51.234;6.804;2023-09-19T05:00:49;14.93;;;4.00;;
10711;SDS011;5407;51.234;6.804;2023-09-19T05:03:16;9.23;;;3.00;;
10711;SDS011;5407;51.234;6.804;2023-09-19T05:05:46;10.77;;;3.53;;
10711;SDS011;5407;51.234;6.804;2023-09-19T05:08:12;13.43;;;3.70;;
10711;SDS011;5407;51.234;6.804;2023-09-19T05:10:41;14.27;;;3.67;;
10711;SDS011;5407;51.234;6.804;2023-09-19T05:13:08;12.80;;;3.80;;
10711;SDS011;5407;51.234;6.804;2023-09-19T05:15:35;12.80;;;3.30;;
10711;SDS011;5407;51.234;6.804;2023-09-19T05:18:02;15.93;;;4.00;;
10711;SDS011;5407;51.234;6.804;2023-09-19T05:20:31;12.53;;;3.47;;
10711;SDS011;5407;51.234;6.804;2023-09-19T05:23:00;14.17;;;3.50;;
10711;SDS011;5407;51.234;6.804;2023-09-19T05:25:28;12.80;;;3.23;;
10711;SDS011;5407;51.234;6.804;2023-09-19T05:27:57;12.07;;;3.23;;
10711;SDS011;5407;51.234;6.804;2023-09-19T05:30:26;11.33;;;3.47;;
10711;SDS011;5407;51.234;6.804;2023-09-19T05:32:54;15.37;;;3.50;;
10711;SDS011;5407;51.234;6.804;2023-09-19T05:35:22;13.30;;;3.67;;
10711;SDS011;5407;51.234;6.804;2023-09-19T05:37:50;12.00;;;3.03;;
10711;SDS011;5407;51.234;6.804;2023-09-19T05:40:17;12.20;;;3.47;;
10711;SDS011;5407;51.234;6.804;2023-09-19T05:42:44;16.50;;;3.80;;
10711;SDS011;5407;51.234;6.804;2023-09-19T05:45:13;18.07;;;3.77;;
10711;SDS011;5407;51.234;6.804;2023-09-19T05:47:44;13.67;;;3.53;;
10711;SDS011;5407;51.234;6.804;2023-09-19T05:50:12;12.70;;;3.43;;
10711;SDS011;5407;51.234;6.804;2023-09-19T05:52:40;13.40;;;3.47;;
10711;SDS011;5407;51.234;6.804;2023-09-19T05:55:09;14.93;;;3.70;;
10711;SDS011;5407;51.234;6.804;2023-09-19T05:57:36;14.20;;;3.40;;
10711;SDS011;5407;51.234;6.804;2023-09-19T06:00:05;13.60;;;3.70;;
10711;SDS011;5407;51.234;6.804;2023-09-19T06:02:38;13.57;;;3.43;;
10711;SDS011;5407;51.234;6.804;2023-09-19T06:05:06;14.20;;;3.10;;
10711;SDS011;5407;51.234;6.804;2023-09-19T06:07:35;12.43;;;3.53;;
10711;SDS011;5407;51.234;6.804;2023-09-19T06:10:02;13.40;;;3.53;;
10711;SDS011;5407;51.234;6.804;2023-09-19T06:12:32;10.23;;;3.17;;
10711;SDS011;5407;51.234;6.804;2023-09-19T06:15:02;13.33;;;3.43;;
10711;SDS011;5407;51.234;6.804;2023-09-19T06:17:33;11.23;;;3.40;;
10711;SDS011;5407;51.234;6.804;2023-09-19T06:20:04;12.27;;;3.47;;
10711;SDS011;5407;51.234;6.804;2023-09-19T06:22:38;14.60;;;3.43;;
10711;SDS011;5407;51.234;6.804;2023-09-19T06:25:07;16.13;;;3.87;;
10711;SDS011;5407;51.234;6.804;2023-09-19T06:27:36;17.03;;;3.80;;
10711;SDS011;5407;51.234;6.804;2023-09-19T06:30:05;13.13;;;3.20;;
10711;SDS011;5407;51.234;6.804;2023-09-19T06:32:33;15.47;;;4.07;;
10711;SDS011;5407;51.234;6.804;2023-09-19T06:35:01;18.43;;;3.93;;
10711;SDS011;5407;51.234;6.804;2023-09-19T06:37:30;10.83;;;3.47;;
10711;SDS011;5407;51.234;6.804;2023-09-19T06:39:56;12.83;;;3.60;;
10711;SDS011;5407;51.234;6.804;2023-09-19T06:42:23;15.27;;;3.60;;
10711;SDS011;5407;51.234;6.804;2023-09-19T06:44:50;16.03;;;3.57;;
10711;SDS011;5407;51.234;6.804;2023-09-19T06:47:18;13.30;;;3.37;;
10711;SDS011;5407;51.234;6.804;2023-09-19T06:49:45;13.70;;;3.77;;
10711;SDS011;5407;51.234;6.804;2023-09-19T06:52:13;10.33;;;3.30;;
10711;SDS011;5407;51.234;6.804;2023-09-19T06:54:42;13.27;;;3.50;;
10711;SDS011;5407;51.234;6.804;2023-09-19T06:57:09;20.57;;;4.10;;
10711;SDS011;5407;51.234;6.804;2023-09-19T06:59:36;16.20;;;3.43;;
10711;SDS011;5407;51.234;6.804;2023-09-19T07:02:04;10.53;;;3.53;;
10711;SDS011;5407;51.234;6.804;2023-09-19T07:04:32;15.33;;;3.77;;
10711;SDS011;5407;51.234;6.804;2023-09-19T07:06:59;14.67;;;3.07;;
10711;SDS011;5407;51.234;6.804;2023-09-19T07:09:26;11.97;;;3.07;;
10711;SDS011;5407;51.234;6.804;2023-09-19T07:11:55;16.93;;;3.70;;
10711;SDS011;5407;51.234;6.804;2023-09-19T07:14:22;12.93;;;3.53;;
10711;SDS011;5407;51.234;6.804;2023-09-19T07:16:49;16.80;;;4.47;;
10711;SDS011;5407;51.234;6.804;2023-09-19T07:19:17;13.77;;;4.47;;
10711;SDS011;5407;51.234;6.804;2023-09-19T07:21:44;13.07;;;3.20;;
10711;SDS011;5407;51.234;6.804;2023-09-19T07:24:12;14.03;;;3.57;;
10711;SDS011;5407;51.234;6.804;2023-09-19T07:26:39;12.90;;;3.33;;
10711;SDS011;5407;51.234;6.804;2023-09-19T07:29:08;13.33;;;3.53;;
10711;SDS011;5407;51.234;6.804;2023-09-19T07:31:35;15.20;;;3.63;;
10711;SDS011;5407;51.234;6.804;2023-09-19T07:34:02;16.83;;;3.50;;
10711;SDS011;5407;51.234;6.804;2023-09-19T07:36:30;13.60;;;3.33;;
10711;SDS011;5407;51.234;6.804;2023-09-19T07:38:57;14.70;;;3.67;;
10711;SDS011;5407;51.234;6.804;2023-09-19T07:41:25;14.23;;;3.43;;
10711;SDS011;5407;51.234;6.804;2023-09-19T07:43:52;17.90;;;3.77;;
10711;SDS011;5407;51.234;6.804;2023-09-19T07:46:21;10.80;;;3.30;;
10711;SDS011;5407;51.234;6.804;2023-09-19T07:48:50;17.10;;;3.67;;
10711;SDS011;5407;51.234;6.804;2023-09-19T07:51:16;14.47;;;3.33;;
10711;SDS011;5407;51.234;6.804;2023-09-19T07:53:44;16.80;;;3.77;;
10711;SDS011;5407;51.234;6.804;2023-09-19T07:56:11;14.13;;;3.37;;
10711;SDS011;5407;51.234;6.804;2023-09-19T07:58:39;12.30;;;3.30;;
10711;SDS011;5407;51.234;6.804;2023-09-19T08:01:10;13.13;;;3.03;;
10711;SDS011;5407;51.234;6.804;2023-09-19T08:03:39;17.10;;;3.83;;
10711;SDS011;5407;51.234;6.804;2023-09-19T08:06:08;12.03;;;3.27;;
10711;SDS011;5407;51.234;6.804;2023-09-19T08:08:35;14.77;;;3.60;;
10711;SDS011;5407;51.234;6.804;2023-09-19T08:11:03;13.37;;;3.33;;
10711;SDS011;5407;51.234;6.804;2023-09-19T08:13:36;14.00;;;3.17;;
10711;SDS011;5407;51.234;6.804;2023-09-19T08:16:08;14.43;;;3.53;;
10711;SDS011;5407;51.234;6.804;2023-09-19T08:18:35;18.23;;;3.43;;
10711;SDS011;5407;51.234;6.804;2023-09-19T08:21:04;16.87;;;6.30;;
10711;SDS011;5407;51.234;6.804;2023-09-19T08:23:33;12.33;;;3.30;;
10711;SDS011;5407;51.234;6.804;2023-09-19T08:26:00;13.30;;;3.63;;
10711;SDS011;5407;51.234;6.804;2023-09-19T08:28:32;16.13;;;3.73;;
10711;SDS011;5407;51.234;6.804;2023-09-19T08:31:01;12.60;;;3.20;;
10711;SDS011;5407;51.234;6.804;2023-09-19T08:33:29;16.07;;;3.33;;
10711;SDS011;5407;51.234;6.804;2023-09-19T08:35:57;16.57;;;3.87;;
10711;SDS011;5407;51.234;6.804;2023-09-19T08:38:26;11.17;;;3.23;;
10711;SDS011;5407;51.234;6.804;2023-09-19T08:40:56;13.17;;;3.20;;
10711;SDS011;5407;51.234;6.804;2023-09-19T08:43:24;16.60;;;3.40;;
10711;SDS011;5407;51.234;6.804;2023-09-19T08:45:52;15.93;;;3.57;;
10711;SDS011;5407;51.234;6.804;2023-09-19T08:48:25;13.17;;;3.50;;
10711;SDS011;5407;51.234;6.804;2023-09-19T08:50:55;14.27;;;3.67;;
10711;SDS011;5407;51.234;6.804;2023-09-19T08:53:29;15.77;;;3.70;;
10711;SDS011;5407;51.234;6.804;2023-09-19T08:56:01;12.33;;;4.13;;
10711;SDS011;5407;51.234;6.804;2023-09-19T08:58:34;16.27;;;3.80;;
10711;SDS011;5407;51.234;6.804;2023-09-19T09:01:07;16.30;;;5.20;;
10711;SDS011;5407;51.234;6.804;2023-09-19T09:03:35;15.77;;;4.77;;
10711;SDS011;5407;51.234;6.804;2023-09-19T09:06:08;12.43;;;3.60;;
10711;SDS011;5407;51.234;6.804;2023-09-19T09:08:39;16.13;;;3.83;;
10711;SDS011;5407;51.234;6.804;2023-09-19T09:11:07;18.23;;;3.50;;
10711;SDS011;5407;51.234;6.804;2023-09-19T09:13:34;14.03;;;3.30;;
10711;SDS011;5407;51.234;6.804;2023-09-19T09:16:03;12.57;;;3.50;;
10711;SDS011;5407;51.234;6.804;2023-09-19T09:18:30;13.07;;;3.53;;
10711;SDS011;5407;51.234;6.804;2023-09-19T09:20:57;11.20;;;3.30;;
10711;SDS011;5407;51.234;6.804;2023-09-19T09:23:24;14.23;;;3.10;;
10711;SDS011;5407;51.234;6.804;2023-09-19T09:25:59;12.63;;;3.37;;
10711;SDS011;5407;51.234;6.804;2023-09-19T09:28:28;13.10;;;3.33;;
10711;SDS011;5407;51.234;6.804;2023-09-19T09:30:56;12.03;;;2.93;;
10711;SDS011;5407;51.234;6.804;2023-09-19T09:33:24;12.60;;;3.23;;
10711;SDS011;5407;51.234;6.804;2023-09-19T09:35:51;13.10;;;3.33;;
10711;SDS011;5407;51.234;6.804;2023-09-19T09:38:22;9.17;;;2.83;;
10711;SDS011;5407;51.234;6.804;2023-09-19T09:40:53;11.60;;;3.17;;
10711;SDS011;5407;51.234;6.804;2023-09-19T09:43:31;18.37;;;4.50;;
10711;SDS011;5407;51.234;6.804;2023-09-19T09:49:05;9.93;;;3.60;;
10711;SDS011;5407;51.234;6.804;2023-09-19T09:51:42;11.53;;;3.57;;
10711;SDS011;5407;51.234;6.804;2023-09-19T09:54:12;9.90;;;3.00;;
10711;SDS011;5407;51.234;6.804;2023-09-19T09:56:51;10.57;;;3.00;;
10711;SDS011;5407;51.234;6.804;2023-09-19T09:59:21;12.47;;;3.00;;
10711;SDS011;5407;51.234;6.804;2023-09-19T10:01:49;13.13;;;2.90;;
10711;SDS011;5407;51.234;6.804;2023-09-19T10:04:27;9.73;;;2.87;;
10711;SDS011;5407;51.234;6.804;2023-09-19T10:06:57;9.90;;;2.93;;
10711;SDS011;5407;51.234;6.804;2023-09-19T10:09:30;10.20;;;2.80;;
10711;SDS011;5407;51.234;6.804;2023-09-19T10:12:12;11.93;;;3.27;;
10711;SDS011;5407;51.234;6.804;2023-09-19T10:14:43;8.53;;;2.73;;
10711;SDS011;5407;51.234;6.804;2023-09-19T10:17:12;9.23;;;2.80;;
10711;SDS011;5407;51.234;6.804;2023-09-19T10:19:42;8.13;;;2.97;;
10711;SDS011;5407;51.234;6.804;2023-09-19T10:22:16;8.27;;;2.90;;
10711;SDS011;5407;51.234;6.804;2023-09-19T10:24:47;13.17;;;3.27;;
10711;SDS011;5407;51.234;6.804;2023-09-19T10:27:17;8.35;;;2.78;;
10711;SDS011;5407;51.234;6.804;2023-09-19T10:29:49;11.93;;;3.00;;
10711;SDS011;5407;51.234;6.804;2023-09-19T10:32:16;10.23;;;3.03;;
10711;SDS011;5407;51.234;6.804;2023-09-19T10:34:45;8.68;;;2.90;;
10711;SDS011;5407;51.234;6.804;2023-09-19T10:37:13;10.95;;;4.93;;
10711;SDS011;5407;51.234;6.804;2023-09-19T10:39:45;10.23;;;3.50;;
10711;SDS011;5407;51.234;6.804;2023-09-19T10:42:14;13.32;;;3.70;;
10711;SDS011;5407;51.234;6.804;2023-09-19T10:44:45;10.25;;;3.10;;
10711;SDS011;5407;51.234;6.804;2023-09-19T10:47:20;14.73;;;4.32;;
10711;SDS011;5407;51.234;6.804;2023-09-19T10:49:49;9.45;;;3.50;;
10711;SDS011;5407;51.234;6.804;2023-09-19T10:52:17;8.48;;;3.20;;
10711;SDS011;5407;51.234;6.804;2023-09-19T10:54:48;8.23;;;2.63;;
10711;SDS011;5407;51.234;6.804;2023-09-19T10:57:20;9.23;;;2.55;;
10711;SDS011;5407;51.234;6.804;2023-09-19T11:00:02;10.95;;;2.78;;
10711;SDS011;5407;51.234;6.804;2023-09-19T11:06:01;10.05;;;2.83;;
10711;SDS011;5407;51.234;6.804;2023-09-19T11:08:50;10.93;;;3.13;;
10711;SDS011;5407;51.234;6.804;2023-09-19T11:11:39;8.68;;;2.72;;
10711;SDS011;5407;51.234;6.804;2023-09-19T11:14:28;11.73;;;2.97;;
10711;SDS011;5407;51.234;6.804;2023-09-19T11:25:49;11.73;;;4.93;;
10711;SDS011;5407;51.234;6.804;2023-09-19T11:28:33;12.50;;;3.95;;
10711;SDS011;5407;51.234;6.804;2023-09-19T11:34:43;9.93;;;3.25;;
10711;SDS011;5407;51.234;6.804;2023-09-19T11:40:29;10.05;;;3.10;;
10711;SDS011;5407;51.234;6.804;2023-09-19T11:42:56;9.63;;;2.72;;
10711;SDS011;5407;51.234;6.804;2023-09-19T11:48:30;7.53;;;2.50;;
10711;SDS011;5407;51.234;6.804;2023-09-19T11:51:00;6.97;;;2.58;;
10711;SDS011;5407;51.234;6.804;2023-09-19T11:53:32;8.00;;;3.00;;
10711;SDS011;5407;51.234;6.804;2023-09-19T11:56:04;9.05;;;3.08;;
10711;SDS011;5407;51.234;6.804;2023-09-19T11:58:36;7.78;;;2.95;;
10711;SDS011;5407;51.234;6.804;2023-09-19T12:01:05;10.07;;;3.22;;
10711;SDS011;5407;51.234;6.804;2023-09-19T12:03:38;8.05;;;2.70;;
10711;SDS011;5407;51.234;6.804;2023-09-19T12:06:14;7.53;;;2.75;;
10711;SDS011;5407;51.234;6.804;2023-09-19T12:08:42;9.25;;;2.67;;
10711;SDS011;5407;51.234;6.804;2023-09-19T12:11:14;8.95;;;3.10;;
10711;SDS011;5407;51.234;6.804;2023-09-19T12:13:42;7.15;;;2.90;;
10711;SDS011;5407;51.234;6.804;2023-09-19T12:16:11;6.68;;;2.88;;
10711;SDS011;5407;51.234;6.804;2023-09-19T12:18:40;7.55;;;3.10;;
10711;SDS011;5407;51.234;6.804;2023-09-19T12:21:20;7.20;;;2.58;;
10711;SDS011;5407;51.234;6.804;2023-09-19T12:23:56;7.55;;;2.42;;
10711;SDS011;5407;51.234;6.804;2023-09-19T12:26:38;6.13;;;2.60;;
10711;SDS011;5407;51.234;6.804;2023-09-19T12:29:10;6.88;;;2.60;;
10711;SDS011;5407;51.234;6.804;2023-09-19T12:31:49;6.97;;;2.72;;
10711;SDS011;5407;51.234;6.804;2023-09-19T12:34:19;6.70;;;2.80;;
10711;SDS011;5407;51.234;6.804;2023-09-19T12:36:47;6.10;;;2.70;;
10711;SDS011;5407;51.234;6.804;2023-09-19T12:39:22;11.82;;;2.85;;
10711;SDS011;5407;51.234;6.804;2023-09-19T12:41:52;8.80;;;2.50;;
10711;SDS011;5407;51.234;6.804;2023-09-19T12:44:20;7.32;;;2.78;;
10711;SDS011;5407;51.234;6.804;2023-09-19T12:46:50;8.35;;;2.72;;
10711;SDS011;5407;51.234;6.804;2023-09-19T12:49:17;6.88;;;3.03;;
10711;SDS011;5407;51.234;6.804;2023-09-19T12:51:45;7.53;;;3.03;;
10711;SDS011;5407;51.234;6.804;2023-09-19T12:54:12;6.57;;;2.30;;
10711;SDS011;5407;51.234;6.804;2023-09-19T12:56:41;5.65;;;2.47;;
10711;SDS011;5407;51.234;6.804;2023-09-19T12:59:11;10.38;;;2.78;;
10711;SDS011;5407;51.234;6.804;2023-09-19T13:01:39;8.32;;;2.47;;
10711;SDS011;5407;51.234;6.804;2023-09-19T13:04:10;6.03;;;2.40;;
10711;SDS011;5407;51.234;6.804;2023-09-19T13:06:40;5.50;;;2.03;;
10711;SDS011;5407;51.234;6.804;2023-09-19T13:09:09;6.30;;;2.00;;
10711;SDS011;5407;51.234;6.804;2023-09-19T13:11:37;5.55;;;2.28;;
10711;SDS011;5407;51.234;6.804;2023-09-19T13:14:14;5.63;;;2.22;;
10711;SDS011;5407;51.234;6.804;2023-09-19T13:16:53;6.75;;;2.60;;
10711;SDS011;5407;51.234;6.804;2023-09-19T13:19:34;8.48;;;2.70;;
10711;SDS011;5407;51.234;6.804;2023-09-19T13:22:02;6.22;;;2.30;;
10711;SDS011;5407;51.234;6.804;2023-09-19T13:24:29;4.50;;;2.10;;
10711;SDS011;5407;51.234;6.804;2023-09-19T13:26:58;5.00;;;2.13;;
10711;SDS011;5407;51.234;6.804;2023-09-19T13:29:30;7.28;;;2.42;;
10711;SDS011;5407;51.234;6.804;2023-09-19T13:31:57;5.60;;;2.50;;
10711;SDS011;5407;51.234;6.804;2023-09-19T13:34:24;7.72;;;2.45;;
10711;SDS011;5407;51.234;6.804;2023-09-19T13:36:51;7.47;;;2.10;;
10711;SDS011;5407;51.234;6.804;2023-09-19T13:39:19;4.93;;;2.03;;
10711;SDS011;5407;51.234;6.804;2023-09-19T13:41:49;7.60;;;2.45;;
10711;SDS011;5407;51.234;6.804;2023-09-19T13:44:16;6.53;;;2.30;;
10711;SDS011;5407;51.234;6.804;2023-09-19T13:46:45;8.93;;;2.53;;
10711;SDS011;5407;51.234;6.804;2023-09-19T13:49:12;5.03;;;2.08;;
10711;SDS011;5407;51.234;6.804;2023-09-19T13:51:39;4.53;;;2.20;;
10711;SDS011;5407;51.234;6.804;2023-09-19T13:54:08;4.55;;;2.15;;
10711;SDS011;5407;51.234;6.804;2023-09-19T13:56:37;3.58;;;1.80;;
10711;SDS011;5407;51.234;6.804;2023-09-19T13:59:04;5.18;;;1.95;;
10711;SDS011;5407;51.234;6.804;2023-09-19T14:01:31;5.53;;;2.03;;
10711;SDS011;5407;51.234;6.804;2023-09-19T14:04:00;5.72;;;1.92;;
10711;SDS011;5407;51.234;6.804;2023-09-19T14:06:27;3.83;;;2.10;;
10711;SDS011;5407;51.234;6.804;2023-09-19T14:08:54;4.03;;;1.90;;
10711;SDS011;5407;51.234;6.804;2023-09-19T14:11:21;4.37;;;1.60;;
10711;SDS011;5407;51.234;6.804;2023-09-19T14:13:48;4.32;;;1.80;;
10711;SDS011;5407;51.234;6.804;2023-09-19T14:16:15;5.80;;;2.00;;
10711;SDS011;5407;51.234;6.804;2023-09-19T14:18:44;2.63;;;1.50;;
10711;SDS011;5407;51.234;6.804;2023-09-19T14:21:13;3.65;;;1.73;;
10711;SDS011;5407;51.234;6.804;2023-09-19T14:23:40;4.30;;;1.60;;
10711;SDS011;5407;51.234;6.804;2023-09-19T14:26:08;5.00;;;1.80;;
10711;SDS011;5407;51.234;6.804;2023-09-19T14:28:35;5.33;;;1.83;;
10711;SDS011;5407;51.234;6.804;2023-09-19T14:31:04;4.53;;;1.80;;
10711;SDS011;5407;51.234;6.804;2023-09-19T14:33:32;4.27;;;1.90;;
10711;SDS011;5407;51.234;6.804;2023-09-19T14:36:01;6.13;;;1.97;;
10711;SDS011;5407;51.234;6.804;2023-09-19T14:38:32;4.25;;;1.88;;
10711;SDS011;5407;51.234;6.804;2023-09-19T14:41:00;5.57;;;2.00;;
10711;SDS011;5407;51.234;6.804;2023-09-19T14:43:27;6.97;;;2.13;;
10711;SDS011;5407;51.234;6.804;2023-09-19T14:45:55;4.38;;;1.98;;
10711;SDS011;5407;51.234;6.804;2023-09-19T14:48:23;4.07;;;1.73;;
10711;SDS011;5407;51.234;6.804;2023-09-19T14:50:51;4.83;;;1.70;;
10711;SDS011;5407;51.234;6.804;2023-09-19T14:53:18;4.22;;;1.77;;
10711;SDS011;5407;51.234;6.804;2023-09-19T14:55:49;4.87;;;1.73;;
10711;SDS011;5407;51.234;6.804;2023-09-19T14:58:17;7.37;;;1.63;;
10711;SDS011;5407;51.234;6.804;2023-09-19T15:00:44;7.13;;;1.97;;
10711;SDS011;5407;51.234;6.804;2023-09-19T15:03:11;5.30;;;1.70;;
10711;SDS011;5407;51.234;6.804;2023-09-19T15:05:39;5.80;;;1.63;;
10711;SDS011;5407;51.234;6.804;2023-09-19T15:08:05;4.97;;;1.73;;
10711;SDS011;5407;51.234;6.804;2023-09-19T15:10:32;3.13;;;1.63;;
10711;SDS011;5407;51.234;6.804;2023-09-19T15:13:01;4.07;;;1.50;;
10711;SDS011;5407;51.234;6.804;2023-09-19T15:15:28;3.40;;;1.87;;
10711;SDS011;5407;51.234;6.804;2023-09-19T15:17:57;5.13;;;1.60;;
10711;SDS011;5407;51.234;6.804;2023-09-19T15:20:24;4.53;;;1.50;;
10711;SDS011;5407;51.234;6.804;2023-09-19T15:22:51;4.30;;;1.80;;
10711;SDS011;5407;51.234;6.804;2023-09-19T15:25:18;4.70;;;1.50;;
10711;SDS011;5407;51.234;6.804;2023-09-19T15:27:45;2.70;;;1.47;;
10711;SDS011;5407;51.234;6.804;2023-09-19T15:30:14;5.37;;;1.77;;
10711;SDS011;5407;51.234;6.804;2023-09-19T15:32:41;5.60;;;1.80;;
10711;SDS011;5407;51.234;6.804;2023-09-19T15:35:08;2.50;;;1.60;;